Time;durP1;ratioP1;P1;durP2;ratioP2;P2;SDS_P1;SDS_P2;PMS_P1;PMS_P2;Temp;Humidity;BMP_temperature;BMP_pressure;BME280_temperature;BME280_humidity;BME280_pressure;Samples;Min_cycle;Max_cycle;Signal;HPM_P1;HPM_P2
2023/12/21 00:01:03;;;;;;;2.50;1.00;;;;;;;-128.00;-1.00;-1.00;100486;1282;1004447;-34
2023/12/21 00:03:29;;;;;;;2.50;0.90;;;;;;;-128.00;-1.00;-1.00;100465;1282;1002961;-34
2023/12/21 00:05:54;;;;;;;3.50;0.90;;;;;;;-128.00;-1.00;-1.00;100563;1283;1003489;-33
2023/12/21 00:08:20;;;;;;;3.40;0.80;;;;;;;-128.00;-1.00;-1.00;100489;1283;1005341;-33
2023/12/21 00:10:46;;;;;;;3.00;0.60;;;;;;;-128.00;-1.00;-1.00;100512;1283;1003090;-33
2023/12/21 00:13:11;;;;;;;2.90;0.80;;;;;;;-128.00;-1.00;-1.00;100505;1282;1003358;-32
2023/12/21 00:15:37;;;;;;;1.00;0.60;;;;;;;-128.00;-1.00;-1.00;100517;1283;1012336;-33
2023/12/21 00:18:03;;;;;;;1.90;0.90;;;;;;;-128.00;-1.00;-1.00;100467;1286;1004024;-34
2023/12/21 00:20:28;;;;;;;1.50;0.70;;;;;;;-128.00;-1.00;-1.00;100476;1283;1060240;-33
2023/12/21 00:22:54;;;;;;;3.60;0.80;;;;;;;-128.00;-1.00;-1.00;100527;1286;1003889;-32
2023/12/21 00:25:19;;;;;;;1.70;0.70;;;;;;;-128.00;-1.00;-1.00;100539;1283;1003073;-31
2023/12/21 00:27:45;;;;;;;1.20;0.70;;;;;;;-128.00;-1.00;-1.00;100565;1284;1002769;-32
2023/12/21 00:30:11;;;;;;;1.50;0.70;;;;;;;-128.00;-1.00;-1.00;100549;1285;1003681;-33
2023/12/21 00:32:37;;;;;;;1.80;0.70;;;;;;;-128.00;-1.00;-1.00;100582;1283;1056355;-32
2023/12/21 00:35:03;;;;;;;1.70;0.60;;;;;;;-128.00;-1.00;-1.00;100469;1283;1003507;-32
2023/12/21 00:37:30;;;;;;;1.00;0.50;;;;;;;-128.00;-1.00;-1.00;100293;1282;1003417;-32
2023/12/21 00:39:56;;;;;;;2.10;0.80;;;;;;;-128.00;-1.00;-1.00;100663;1282;1047190;-33
2023/12/21 00:42:24;;;;;;;2.10;0.70;;;;;;;-128.00;-1.00;-1.00;100496;1282;1003553;-33
2023/12/21 00:44:50;;;;;;;3.20;1.00;;;;;;;-128.00;-1.00;-1.00;100480;1283;1003305;-33
2023/12/21 00:47:16;;;;;;;2.20;0.80;;;;;;;-128.00;-1.00;-1.00;100445;1283;1003786;-30
2023/12/21 00:49:41;;;;;;;2.30;0.90;;;;;;;-128.00;-1.00;-1.00;100421;1285;1039232;-30
2023/12/21 00:52:07;;;;;;;1.20;0.90;;;;;;;-128.00;-1.00;-1.00;100515;1283;1003071;-31
2023/12/21 00:54:32;;;;;;;2.50;1.30;;;;;;;-128.00;-1.00;-1.00;100454;1284;1002975;-32
2023/12/21 00:56:58;;;;;;;2.60;1.40;;;;;;;-128.00;-1.00;-1.00;100525;1285;1003545;-33
2023/12/21 00:59:24;;;;;;;2.30;1.20;;;;;;;-128.00;-1.00;-1.00;100440;1283;1003624;-32
2023/12/21 01:01:50;;;;;;;1.70;1.00;;;;;;;-128.00;-1.00;-1.00;100422;1283;1046809;-33
2023/12/21 01:04:16;;;;;;;2.70;1.00;;;;;;;-128.00;-1.00;-1.00;100538;1283;1004588;-33
2023/12/21 01:06:43;;;;;;;5.10;0.60;;;;;;;-128.00;-1.00;-1.00;100450;1286;1002521;-32
2023/12/21 01:09:08;;;;;;;1.80;0.90;;;;;;;-128.00;-1.00;-1.00;100477;1285;1003983;-33
2023/12/21 01:11:34;;;;;;;2.50;0.90;;;;;;;-128.00;-1.00;-1.00;100576;1283;1003865;-33
2023/12/21 01:13:59;;;;;;;1.20;0.70;;;;;;;-128.00;-1.00;-1.00;100518;1282;1003367;-33
2023/12/21 01:16:25;;;;;;;1.70;1.00;;;;;;;-128.00;-1.00;-1.00;100483;1285;1003378;-33
2023/12/21 01:18:51;;;;;;;4.10;1.30;;;;;;;-128.00;-1.00;-1.00;100471;1285;1002705;-33
2023/12/21 01:21:16;;;;;;;2.40;1.50;;;;;;;-128.00;-1.00;-1.00;100421;1283;1003475;-32
2023/12/21 01:23:42;;;;;;;1.90;1.00;;;;;;;-128.00;-1.00;-1.00;100472;1282;1004509;-31
2023/12/21 01:26:07;;;;;;;2.70;1.30;;;;;;;-128.00;-1.00;-1.00;100436;1286;1059431;-31
2023/12/21 01:28:33;;;;;;;2.70;1.50;;;;;;;-128.00;-1.00;-1.00;100430;1283;1003333;-31
2023/12/21 01:30:58;;;;;;;3.90;1.30;;;;;;;-128.00;-1.00;-1.00;100426;1283;1003166;-32
2023/12/21 01:33:24;;;;;;;3.70;1.40;;;;;;;-128.00;-1.00;-1.00;100521;1286;1004286;-32
2023/12/21 01:35:49;;;;;;;3.80;1.70;;;;;;;-128.00;-1.00;-1.00;100440;1283;1004869;-31
2023/12/21 01:38:15;;;;;;;4.10;1.70;;;;;;;-128.00;-1.00;-1.00;100459;1282;1055985;-31
2023/12/21 01:40:41;;;;;;;3.10;1.60;;;;;;;-128.00;-1.00;-1.00;100282;1281;1002857;-31
2023/12/21 01:43:07;;;;;;;;;;;;;;;-128.00;-1.00;-1.00;100374;1285;1043495;-32
2023/12/21 01:45:32;;;;;;;3.90;1.50;;;;;;;-128.00;-1.00;-1.00;100518;1283;1002736;-33
2023/12/21 01:47:58;;;;;;;5.90;1.70;;;;;;;-128.00;-1.00;-1.00;100549;1283;1003981;-32
2023/12/21 01:50:23;;;;;;;7.60;2.00;;;;;;;-128.00;-1.00;-1.00;100442;1285;1004011;-31
2023/12/21 02:33:15;;;;;;;5.40;2.40;;;;;;;-101.98;19.20;19626.10;100650;1283;1600315;-31
2023/12/21 02:35:42;;;;;;;3.40;1.90;;;;;;;-128.00;-1.00;-1.00;100166;1282;1003146;-32
2023/12/21 02:38:08;;;;;;;5.00;2.00;;;;;;;-128.00;-1.00;-1.00;100195;1283;1003282;-32
2023/12/21 02:40:33;;;;;;;4.50;1.90;;;;;;;-128.00;-1.00;-1.00;100285;1285;1003564;-31
2023/12/21 02:42:59;;;;;;;3.50;1.90;;;;;;;-128.00;-1.00;-1.00;100175;1283;1055274;-30
2023/12/21 02:45:24;;;;;;;6.10;1.90;;;;;;;-128.00;-1.00;-1.00;100187;1285;1004558;-31
2023/12/21 02:47:50;;;;;;;3.00;1.80;;;;;;;-128.00;-1.00;-1.00;100093;1284;1004874;-32
2023/12/21 02:50:16;;;;;;;4.30;1.70;;;;;;;-128.00;-1.00;-1.00;100262;1283;1003624;-32
2023/12/21 02:52:41;;;;;;;4.00;1.70;;;;;;;-128.00;-1.00;-1.00;100154;1283;1055492;-32
2023/12/21 02:55:07;;;;;;;2.50;1.50;;;;;;;-128.00;-1.00;-1.00;100111;1283;1003493;-31
2023/12/21 02:57:33;;;;;;;2.60;1.90;;;;;;;-128.00;-1.00;-1.00;100183;1285;1038197;-31
2023/12/21 02:59:58;;;;;;;3.30;1.80;;;;;;;-128.00;-1.00;-1.00;100198;1284;1003065;-31
2023/12/21 03:02:24;;;;;;;2.40;1.60;;;;;;;-128.00;-1.00;-1.00;100190;1283;1056294;-33
2023/12/21 03:04:50;;;;;;;6.80;1.80;;;;;;;-128.00;-1.00;-1.00;100192;1284;1002964;-31
2023/12/21 03:07:15;;;;;;;1.90;0.90;;;;;;;-128.00;-1.00;-1.00;100134;1283;1004638;-32
2023/12/21 03:09:41;;;;;;;5.30;1.50;;;;;;;-128.00;-1.00;-1.00;100133;1283;1047213;-32
2023/12/21 03:12:07;;;;;;;2.00;1.20;;;;;;;-128.00;-1.00;-1.00;100177;1283;1003031;-32
2023/12/21 03:14:32;;;;;;;2.10;1.30;;;;;;;-128.00;-1.00;-1.00;100177;1283;1002906;-31
2023/12/21 03:16:58;;;;;;;4.60;1.20;;;;;;;-128.00;-1.00;-1.00;100105;1283;1003397;-32
2023/12/21 03:19:23;;;;;;;1.90;1.10;;;;;;;-128.00;-1.00;-1.00;100201;1285;1003718;-33
2023/12/21 03:21:49;;;;;;;5.30;1.00;;;;;;;-128.00;-1.00;-1.00;100106;1283;1060048;-32
2023/12/21 03:24:14;;;;;;;2.80;1.30;;;;;;;-128.00;-1.00;-1.00;100120;1285;1003494;-33
2023/12/21 03:26:41;;;;;;;1.80;1.20;;;;;;;-128.00;-1.00;-1.00;100112;1283;1003794;-33
2023/12/21 03:29:07;;;;;;;2.50;0.80;;;;;;;-128.00;-1.00;-1.00;100163;1284;1002836;-31
2023/12/21 03:31:32;;;;;;;2.40;1.30;;;;;;;-128.00;-1.00;-1.00;100248;1283;1002902;-30
2023/12/21 03:33:58;;;;;;;1.70;0.90;;;;;;;-128.00;-1.00;-1.00;100156;1285;1003722;-32
2023/12/21 03:36:24;;;;;;;2.70;1.00;;;;;;;-128.00;-1.00;-1.00;100140;1285;1003069;-31
2023/12/21 03:38:50;;;;;;;2.00;0.70;;;;;;;-128.00;-1.00;-1.00;100180;1285;1003970;-32
2023/12/21 03:41:16;;;;;;;1.50;0.60;;;;;;;-128.00;-1.00;-1.00;100188;1284;1005041;-32
2023/12/21 03:43:41;;;;;;;2.80;1.20;;;;;;;-128.00;-1.00;-1.00;100176;1283;1059735;-31
2023/12/21 03:46:09;;;;;;;2.80;1.10;;;;;;;-128.00;-1.00;-1.00;100192;1283;1002787;-32
2023/12/21 03:48:34;;;;;;;3.30;0.90;;;;;;;-128.00;-1.00;-1.00;100141;1285;1012138;-31
2023/12/21 03:51:00;;;;;;;2.30;0.90;;;;;;;-128.00;-1.00;-1.00;100173;1285;1002818;-32
2023/12/21 03:53:25;;;;;;;1.10;0.80;;;;;;;-128.00;-1.00;-1.00;100170;1283;1002803;-33
2023/12/21 03:55:51;;;;;;;3.40;1.00;;;;;;;-128.00;-1.00;-1.00;100150;1283;1004092;-32
2023/12/21 03:58:16;;;;;;;1.70;0.80;;;;;;;-128.00;-1.00;-1.00;100155;1283;1003786;-34
2023/12/21 04:00:42;;;;;;;1.50;0.60;;;;;;;-128.00;-1.00;-1.00;100166;1285;1003622;-32
2023/12/21 04:03:08;;;;;;;1.50;0.60;;;;;;;-128.00;-1.00;-1.00;100257;1284;1003787;-32
2023/12/21 04:05:33;;;;;;;2.30;0.70;;;;;;;-128.00;-1.00;-1.00;100140;1283;1003582;-33
2023/12/21 04:07:59;;;;;;;1.60;0.70;;;;;;;-128.00;-1.00;-1.00;100145;1288;1003562;-34
2023/12/21 04:10:24;;;;;;;1.50;0.70;;;;;;;-128.00;-1.00;-1.00;100041;1285;1002614;-32
2023/12/21 04:12:50;;;;;;;1.90;0.70;;;;;;;-128.00;-1.00;-1.00;100164;1285;1003945;-33
2023/12/21 04:15:16;;;;;;;0.90;0.60;;;;;;;-128.00;-1.00;-1.00;100265;1285;1003425;-34
2023/12/21 04:17:42;;;;;;;1.80;0.70;;;;;;;-128.00;-1.00;-1.00;100134;1286;1059235;-33
2023/12/21 04:20:09;;;;;;;2.10;0.60;;;;;;;-128.00;-1.00;-1.00;100057;1284;1002478;-32
2023/12/21 04:22:35;;;;;;;1.50;0.60;;;;;;;-128.00;-1.00;-1.00;100149;1283;1002957;-33
2023/12/21 04:25:01;;;;;;;1.30;0.50;;;;;;;-128.00;-1.00;-1.00;100137;1284;1003222;-32
2023/12/21 04:27:28;;;;;;;2.00;0.70;;;;;;;-128.00;-1.00;-1.00;100223;1285;1004098;-33
2023/12/21 04:29:54;;;;;;;1.10;0.60;;;;;;;-128.00;-1.00;-1.00;100130;1283;1058446;-33
2023/12/21 04:32:20;;;;;;;1.60;0.60;;;;;;;-128.00;-1.00;-1.00;100128;1283;1003186;-32
2023/12/21 04:34:46;;;;;;;4.00;0.40;;;;;;;-128.00;-1.00;-1.00;100176;1288;1003452;-32
2023/12/21 04:37:12;;;;;;;1.20;0.60;;;;;;;-128.00;-1.00;-1.00;100312;1283;1003200;-33
2023/12/21 04:39:38;;;;;;;0.80;0.30;;;;;;;-128.00;-1.00;-1.00;100154;1285;1056803;-33
2023/12/21 04:42:04;;;;;;;0.90;0.40;;;;;;;-128.00;-1.00;-1.00;100165;1283;1003550;-32
2023/12/21 04:44:30;;;;;;;0.90;0.40;;;;;;;-128.00;-1.00;-1.00;100258;1283;1003154;-32
2023/12/21 04:46:55;;;;;;;2.30;0.30;;;;;;;-128.00;-1.00;-1.00;100291;1283;1004167;-32
2023/12/21 04:49:24;;;;;;;0.60;0.20;;;;;;;-128.00;-1.00;-1.00;100193;1283;1003372;-32
2023/12/21 04:51:50;;;;;;;0.90;0.40;;;;;;;-128.00;-1.00;-1.00;100151;1283;1003619;-32
2023/12/21 04:54:15;;;;;;;1.70;0.30;;;;;;;-128.00;-1.00;-1.00;100108;1285;1003206;-34
2023/12/21 04:56:41;;;;;;;0.90;0.30;;;;;;;-128.00;-1.00;-1.00;100202;1285;1003210;-31
2023/12/21 04:59:07;;;;;;;0.30;0.20;;;;;;;-128.00;-1.00;-1.00;100240;1285;1045729;-31
2023/12/21 05:01:33;;;;;;;0.80;0.30;;;;;;;-128.00;-1.00;-1.00;100144;1285;1003155;-32
2023/12/21 05:04:02;;;;;;;1.10;0.40;;;;;;;-128.00;-1.00;-1.00;100138;1285;1002445;-31
2023/12/21 05:06:28;;;;;;;0.70;0.40;;;;;;;-128.00;-1.00;-1.00;100142;1283;1003107;-33
2023/12/21 05:08:54;;;;;;;;;;;;;;;-128.00;-1.00;-1.00;100152;1283;1003853;-32
2023/12/21 05:11:20;;;;;;;0.30;0.20;;;;;;;-128.00;-1.00;-1.00;100187;1285;1003767;-31
2023/12/21 05:13:46;;;;;;;0.50;0.20;;;;;;;-128.00;-1.00;-1.00;100236;1283;1003282;-33
2023/12/21 05:16:12;;;;;;;0.40;0.20;;;;;;;-128.00;-1.00;-1.00;100139;1284;1055604;-32
2023/12/21 05:18:37;;;;;;;1.10;0.20;;;;;;;-128.00;-1.00;-1.00;100156;1285;1005115;-33
2023/12/21 05:21:06;;;;;;;2.00;0.40;;;;;;;-128.00;-1.00;-1.00;100196;1285;1002850;-34
2023/12/21 05:23:32;;;;;;;0.60;0.20;;;;;;;-128.00;-1.00;-1.00;100185;1285;1046040;-35
2023/12/21 05:25:57;;;;;;;0.60;0.30;;;;;;;-128.00;-1.00;-1.00;100139;1283;1004660;-33
2023/12/21 05:28:23;;;;;;;0.70;0.30;;;;;;;-128.00;-1.00;-1.00;100184;1284;1003533;-33
2023/12/21 05:30:50;;;;;;;0.50;0.30;;;;;;;-128.00;-1.00;-1.00;100090;1285;1013908;-33
2023/12/21 05:33:16;;;;;;;0.40;0.10;;;;;;;-128.00;-1.00;-1.00;100031;1288;1003653;-33
2023/12/21 05:35:42;;;;;;;0.70;0.20;;;;;;;-128.00;-1.00;-1.00;100136;1283;1003379;-33
2023/12/21 05:38:07;;;;;;;0.20;0.10;;;;;;;-128.00;-1.00;-1.00;100117;1285;1056228;-34
2023/12/21 05:40:33;;;;;;;0.70;0.10;;;;;;;-128.00;-1.00;-1.00;100110;1283;1003205;-33
2023/12/21 05:42:58;;;;;;;0.40;0.20;;;;;;;-128.00;-1.00;-1.00;100171;1285;1003939;-33
2023/12/21 05:45:24;;;;;;;0.70;0.10;;;;;;;-128.00;-1.00;-1.00;100168;1284;1003907;-32
2023/12/21 05:47:49;;;;;;;0.40;0.20;;;;;;;-128.00;-1.00;-1.00;100221;1285;1003170;-34
2023/12/21 05:50:15;;;;;;;0.40;0.10;;;;;;;-128.00;-1.00;-1.00;100191;1284;1058713;-36
2023/12/21 05:52:40;;;;;;;0.80;0.20;;;;;;;-128.00;-1.00;-1.00;100237;1286;1003030;-34
2023/12/21 05:55:07;;;;;;;0.80;0.20;;;;;;;-128.00;-1.00;-1.00;100216;1285;1002936;-33
2023/12/21 05:57:32;;;;;;;1.00;0.20;;;;;;;-128.00;-1.00;-1.00;100241;1283;1059598;-32
2023/12/21 05:59:58;;;;;;;0.60;0.10;;;;;;;-128.00;-1.00;-1.00;100164;1285;1004107;-33
2023/12/21 06:02:23;;;;;;;0.40;0.10;;;;;;;-128.00;-1.00;-1.00;100112;1284;1002451;-34
2023/12/21 06:04:50;;;;;;;0.40;0.10;;;;;;;-128.00;-1.00;-1.00;100209;1285;1039467;-32
2023/12/21 06:07:15;;;;;;;0.60;0.20;;;;;;;-128.00;-1.00;-1.00;100169;1284;1003455;-33
2023/12/21 06:09:41;;;;;;;0.30;0.10;;;;;;;-128.00;-1.00;-1.00;100158;1283;1003325;-33
2023/12/21 06:12:07;;;;;;;0.30;0.30;;;;;;;-128.00;-1.00;-1.00;100164;1285;1004151;-31
2023/12/21 06:14:32;;;;;;;0.30;0.10;;;;;;;-128.00;-1.00;-1.00;100140;1285;1013213;-33
2023/12/21 06:17:00;;;;;;;0.40;0.10;;;;;;;-128.00;-1.00;-1.00;100151;1284;1004297;-31
2023/12/21 06:19:25;;;;;;;0.50;0.20;;;;;;;-128.00;-1.00;-1.00;100160;1284;1003544;-31
2023/12/21 06:21:51;;;;;;;0.30;0.10;;;;;;;-128.00;-1.00;-1.00;100133;1285;1002736;-33
2023/12/21 06:24:16;;;;;;;0.30;0.20;;;;;;;-128.00;-1.00;-1.00;100156;1285;1003117;-32
2023/12/21 06:26:42;;;;;;;1.00;0.10;;;;;;;-128.00;-1.00;-1.00;100172;1286;1003700;-32
2023/12/21 06:29:08;;;;;;;0.30;0.10;;;;;;;-128.00;-1.00;-1.00;100223;1283;1003836;-33
2023/12/21 06:31:33;;;;;;;0.20;0.10;;;;;;;-128.00;-1.00;-1.00;100099;1283;1060021;-33
2023/12/21 06:33:59;;;;;;;0.60;0.10;;;;;;;-128.00;-1.00;-1.00;100154;1283;1002786;-30
2023/12/21 06:36:25;;;;;;;0.60;0.10;;;;;;;-128.00;-1.00;-1.00;100131;1285;1003702;-30
2023/12/21 06:38:52;;;;;;;0.50;0.20;;;;;;;-128.00;-1.00;-1.00;100148;1287;1002873;-32
2023/12/21 06:41:17;;;;;;;0.10;0.10;;;;;;;-128.00;-1.00;-1.00;100218;1284;1003668;-30
2023/12/21 06:43:43;;;;;;;0.20;0.10;;;;;;;-128.00;-1.00;-1.00;100198;1285;1003875;-31
2023/12/21 06:46:14;;;;;;;0.20;0.10;;;;;;;-128.00;-1.00;-1.00;100126;1285;1003468;-32
2023/12/21 06:48:41;;;;;;;0.50;0.10;;;;;;;-128.00;-1.00;-1.00;100174;1285;1013008;-31
2023/12/21 06:51:08;;;;;;;0.40;0.10;;;;;;;-128.00;-1.00;-1.00;100206;1285;1002823;-33
2023/12/21 06:53:33;;;;;;;1.30;0.10;;;;;;;-128.00;-1.00;-1.00;100185;1285;1003112;-31
2023/12/21 06:56:00;;;;;;;0.40;0.10;;;;;;;-128.00;-1.00;-1.00;100177;1285;1003207;-30
2023/12/21 06:58:27;;;;;;;0.30;0.10;;;;;;;-128.00;-1.00;-1.00;100160;1288;1005067;-30
2023/12/21 07:00:53;;;;;;;0.10;0.10;;;;;;;-128.00;-1.00;-1.00;100197;1284;1003145;-30
2023/12/21 07:03:18;;;;;;;0.90;0.10;;;;;;;-128.00;-1.00;-1.00;100191;1285;1003865;-31
2023/12/21 07:05:44;;;;;;;0.40;0.20;;;;;;;-128.00;-1.00;-1.00;100212;1286;1003441;-31
2023/12/21 07:08:10;;;;;;;2.00;0.10;;;;;;;-128.00;-1.00;-1.00;100218;1285;1059906;-32
2023/12/21 07:10:35;;;;;;;0.30;0.20;;;;;;;-128.00;-1.00;-1.00;100264;1285;1003193;-32
2023/12/21 07:13:01;;;;;;;0.30;0.20;;;;;;;-128.00;-1.00;-1.00;100163;1285;1002982;-32
2023/12/21 07:15:27;;;;;;;0.90;0.20;;;;;;;-128.00;-1.00;-1.00;100143;1287;1038859;-31
2023/12/21 07:17:52;;;;;;;0.20;0.10;;;;;;;-128.00;-1.00;-1.00;100186;1283;1004977;-34
2023/12/21 07:20:24;;;;;;;1.00;0.30;;;;;;;-128.00;-1.00;-1.00;100213;1284;1003800;-32
2023/12/21 07:22:50;;;;;;;0.30;0.10;;;;;;;-128.00;-1.00;-1.00;100170;1284;1058983;-30
2023/12/21 07:25:16;;;;;;;0.80;0.20;;;;;;;-128.00;-1.00;-1.00;100159;1283;1003381;-31
2023/12/21 07:27:41;;;;;;;0.70;0.20;;;;;;;-128.00;-1.00;-1.00;100182;1287;1003029;-30
2023/12/21 07:30:08;;;;;;;1.00;0.40;;;;;;;-128.00;-1.00;-1.00;100188;1283;1003708;-32
2023/12/21 07:32:33;;;;;;;0.50;0.20;;;;;;;-128.00;-1.00;-1.00;100038;1285;1056611;-31
2023/12/21 07:34:59;;;;;;;0.50;0.20;;;;;;;-128.00;-1.00;-1.00;100123;1283;1003017;-32
2023/12/21 07:37:25;;;;;;;0.90;0.20;;;;;;;-128.00;-1.00;-1.00;100216;1285;1038471;-32
2023/12/21 07:39:50;;;;;;;0.80;0.20;;;;;;;-128.00;-1.00;-1.00;100185;1283;1003023;-33
2023/12/21 07:42:17;;;;;;;0.50;0.30;;;;;;;-128.00;-1.00;-1.00;100195;1284;1002611;-33
2023/12/21 07:44:44;;;;;;;0.30;0.20;;;;;;;-128.00;-1.00;-1.00;100169;1285;1005215;-33
2023/12/21 07:47:09;;;;;;;1.30;0.30;;;;;;;-128.00;-1.00;-1.00;100206;1284;1003162;-29
2023/12/21 07:49:35;;;;;;;1.40;0.70;;;;;;;-128.00;-1.00;-1.00;100128;1285;1002699;-31
2023/12/21 07:52:01;;;;;;;0.90;0.30;;;;;;;-128.00;-1.00;-1.00;100225;1285;1003479;-31
2023/12/21 07:54:26;;;;;;;0.50;0.30;;;;;;;-128.00;-1.00;-1.00;100229;1283;1059112;-32
2023/12/21 07:56:52;;;;;;;0.90;0.20;;;;;;;-128.00;-1.00;-1.00;99998;1285;1003567;-30
2023/12/21 07:59:19;;;;;;;0.80;0.30;;;;;;;-128.00;-1.00;-1.00;100189;1283;1003689;-33
2023/12/21 08:01:49;;;;;;;0.70;0.20;;;;;;;-128.00;-1.00;-1.00;100214;1285;1045252;-31
2023/12/21 08:04:16;;;;;;;0.90;0.30;;;;;;;-128.00;-1.00;-1.00;100252;1285;1059793;-32
2023/12/21 08:06:42;;;;;;;0.60;0.20;;;;;;;-128.00;-1.00;-1.00;100191;1285;1003084;-31
2023/12/21 08:09:07;;;;;;;0.40;0.20;;;;;;;-128.00;-1.00;-1.00;100165;1284;1002981;-30
2023/12/21 08:11:33;;;;;;;0.40;0.30;;;;;;;-128.00;-1.00;-1.00;100216;1285;1003061;-30
2023/12/21 08:13:59;;;;;;;0.50;0.20;;;;;;;-128.00;-1.00;-1.00;100164;1286;1046510;-33
2023/12/21 08:16:24;;;;;;;0.40;0.20;;;;;;;-128.00;-1.00;-1.00;100093;1285;1002909;-34
2023/12/21 08:18:50;;;;;;;0.50;0.30;;;;;;;-128.00;-1.00;-1.00;100235;1285;1002971;-32
2023/12/21 08:21:15;;;;;;;0.70;0.20;;;;;;;-128.00;-1.00;-1.00;100059;1285;1003046;-33
2023/12/21 08:23:41;;;;;;;0.90;0.20;;;;;;;-128.00;-1.00;-1.00;100183;1285;1003764;-31
2023/12/21 08:26:07;;;;;;;1.40;0.20;;;;;;;-128.00;-1.00;-1.00;100199;1285;1003650;-33
2023/12/21 08:28:33;;;;;;;;;;;;;;;-128.00;-1.00;-1.00;100137;1284;1056211;-31
2023/12/21 08:30:59;;;;;;;0.80;0.20;;;;;;;-128.00;-1.00;-1.00;100048;1285;1003232;-31
2023/12/21 08:33:25;;;;;;;;;;;;;;;-128.00;-1.00;-1.00;100168;1288;1039138;-31
2023/12/21 08:35:50;;;;;;;0.50;0.20;;;;;;;-128.00;-1.00;-1.00;100142;1286;1002174;-31
2023/12/21 08:38:16;;;;;;;0.80;0.20;;;;;;;-128.00;-1.00;-1.00;100206;1285;1002589;-31
2023/12/21 08:40:41;;;;;;;0.40;0.20;;;;;;;-128.00;-1.00;-1.00;99989;1286;1003964;-31
2023/12/21 08:43:07;;;;;;;0.80;0.20;;;;;;;-128.00;-1.00;-1.00;100205;1283;1004925;-32
2023/12/21 08:45:32;;;;;;;0.50;0.20;;;;;;;-128.00;-1.00;-1.00;100176;1284;1002603;-32
2023/12/21 08:47:58;;;;;;;3.30;0.40;;;;;;;-128.00;-1.00;-1.00;100195;1285;1003031;-32
2023/12/21 08:50:24;;;;;;;0.50;0.20;;;;;;;-128.00;-1.00;-1.00;100174;1285;1003072;-33
2023/12/21 08:52:50;;;;;;;0.40;0.30;;;;;;;-128.00;-1.00;-1.00;100262;1285;1004303;-31
2023/12/21 08:55:16;;;;;;;0.70;0.30;;;;;;;-128.00;-1.00;-1.00;100158;1288;1004061;-31
2023/12/21 08:57:41;;;;;;;0.60;0.30;;;;;;;-128.00;-1.00;-1.00;100157;1285;1004078;-34
2023/12/21 09:00:12;;;;;;;1.30;0.40;;;;;;;-128.00;-1.00;-1.00;100299;1286;1004035;-30
2023/12/21 09:02:38;;;;;;;0.60;0.20;;;;;;;-128.00;-1.00;-1.00;100157;1285;1058077;-31
2023/12/21 09:05:04;;;;;;;0.70;0.30;;;;;;;-128.00;-1.00;-1.00;100135;1288;1003052;-31
2023/12/21 09:07:30;;;;;;;0.80;0.20;;;;;;;-128.00;-1.00;-1.00;100175;1283;1002380;-30
2023/12/21 09:09:55;;;;;;;1.30;0.20;;;;;;;-128.00;-1.00;-1.00;100174;1285;1060703;-29
2023/12/21 09:12:22;;;;;;;1.00;0.20;;;;;;;-128.00;-1.00;-1.00;100212;1285;1002952;-32
2023/12/21 09:14:47;;;;;;;0.30;0.10;;;;;;;-128.00;-1.00;-1.00;100145;1286;1003766;-34
2023/12/21 09:17:16;;;;;;;0.50;0.20;;;;;;;-128.00;-1.00;-1.00;100234;1285;1002852;-31
2023/12/21 09:19:43;;;;;;;0.90;0.30;;;;;;;-128.00;-1.00;-1.00;100212;1285;1047040;-32
2023/12/21 09:22:09;;;;;;;0.60;0.30;;;;;;;-128.00;-1.00;-1.00;100141;1285;1003015;-31
2023/12/21 09:24:34;;;;;;;1.30;0.20;;;;;;;-128.00;-1.00;-1.00;100142;1285;1003897;-32
2023/12/21 09:27:00;;;;;;;2.40;0.30;;;;;;;-128.00;-1.00;-1.00;100259;1285;1004952;-32
2023/12/21 09:29:26;;;;;;;1.70;0.30;;;;;;;-128.00;-1.00;-1.00;100199;1285;1038900;-31
2023/12/21 09:31:51;;;;;;;0.70;0.30;;;;;;;-128.00;-1.00;-1.00;100110;1284;1003024;-31
2023/12/21 09:34:18;;;;;;;0.70;0.20;;;;;;;-128.00;-1.00;-1.00;100274;1285;1002950;-32
2023/12/21 09:36:43;;;;;;;0.60;0.20;;;;;;;-128.00;-1.00;-1.00;100189;1285;1059241;-31
2023/12/21 09:39:11;;;;;;;0.40;0.20;;;;;;;-128.00;-1.00;-1.00;100205;1285;1003725;-31
2023/12/21 09:41:37;;;;;;;0.70;0.20;;;;;;;-128.00;-1.00;-1.00;100143;1285;1046734;-31
2023/12/21 09:44:03;;;;;;;0.70;0.20;;;;;;;-128.00;-1.00;-1.00;99795;1285;1003634;-37
2023/12/21 09:46:33;;;;;;;0.30;0.20;;;;;;;-128.00;-1.00;-1.00;100213;1285;1004228;-32
2023/12/21 09:48:58;;;;;;;0.80;0.30;;;;;;;-128.00;-1.00;-1.00;100133;1286;1059179;-29
2023/12/21 09:51:24;;;;;;;0.90;0.30;;;;;;;-128.00;-1.00;-1.00;100212;1285;1003877;-32
2023/12/21 09:53:50;;;;;;;0.30;0.20;;;;;;;-128.00;-1.00;-1.00;100276;1285;1046172;-33
2023/12/21 09:56:16;;;;;;;0.90;0.30;;;;;;;-128.00;-1.00;-1.00;100208;1283;1004486;-32
2023/12/21 09:58:42;;;;;;;1.20;0.30;;;;;;;-128.00;-1.00;-1.00;100141;1283;1003471;-31
2023/12/21 10:01:07;;;;;;;1.20;0.40;;;;;;;-128.00;-1.00;-1.00;99956;1285;1003014;-31
2023/12/21 10:03:33;;;;;;;1.40;0.30;;;;;;;-128.00;-1.00;-1.00;100199;1288;1002865;-31
2023/12/21 10:06:03;;;;;;;2.00;0.30;;;;;;;-128.00;-1.00;-1.00;100148;1283;1004184;-30
2023/12/21 10:08:33;;;;;;;0.80;0.50;;;;;;;-128.00;-1.00;-1.00;100179;1285;1059120;-30
2023/12/21 10:11:02;;;;;;;0.90;0.40;;;;;;;-128.00;-1.00;-1.00;100212;1285;1056377;-30
2023/12/21 10:13:28;;;;;;;0.70;0.30;;;;;;;-128.00;-1.00;-1.00;100160;1288;1059673;-32
2023/12/21 10:15:58;;;;;;;3.10;0.20;;;;;;;-128.00;-1.00;-1.00;100261;1285;1003026;-32
2023/12/21 10:18:23;;;;;;;0.70;0.20;;;;;;;-128.00;-1.00;-1.00;100094;1285;1046645;-34
2023/12/21 10:20:49;;;;;;;0.50;0.20;;;;;;;-128.00;-1.00;-1.00;100155;1285;1002923;-31
2023/12/21 10:23:15;;;;;;;1.70;0.60;;;;;;;-128.00;-1.00;-1.00;99991;1284;1003447;-33
2023/12/21 10:25:45;;;;;;;1.70;0.40;;;;;;;-128.00;-1.00;-1.00;100160;1285;1013166;-32
2023/12/21 10:28:10;;;;;;;0.40;0.30;;;;;;;-128.00;-1.00;-1.00;100021;1288;1038839;-34
2023/12/21 10:30:36;;;;;;;0.90;0.40;;;;;;;-128.00;-1.00;-1.00;100143;1285;1003363;-32
2023/12/21 10:33:02;;;;;;;0.60;0.30;;;;;;;-128.00;-1.00;-1.00;100268;1285;1004615;-34
2023/12/21 10:35:28;;;;;;;;;;;;;;;-128.00;-1.00;-1.00;100302;1283;1003636;-34
2023/12/21 10:37:54;;;;;;;0.40;0.30;;;;;;;-128.00;-1.00;-1.00;100120;1288;1013146;-30
2023/12/21 10:40:23;;;;;;;0.60;0.30;;;;;;;-128.00;-1.00;-1.00;100189;1283;1003041;-32
2023/12/21 10:42:49;;;;;;;0.90;0.30;;;;;;;-128.00;-1.00;-1.00;100211;1285;1046359;-33
2023/12/21 10:45:21;;;;;;;0.70;0.40;;;;;;;-128.00;-1.00;-1.00;100148;1285;1004469;-30
2023/12/21 10:47:53;;;;;;;1.00;0.30;;;;;;;-128.00;-1.00;-1.00;100184;1285;1055051;-32
2023/12/21 10:50:19;;;;;;;0.80;0.30;;;;;;;-128.00;-1.00;-1.00;100177;1288;1059134;-36
2023/12/21 10:52:46;;;;;;;0.90;0.40;;;;;;;-128.00;-1.00;-1.00;99993;1288;1004919;-32
2023/12/21 10:55:15;;;;;;;1.90;0.60;;;;;;;-128.00;-1.00;-1.00;100149;1286;1002658;-32
2023/12/21 10:57:42;;;;;;;1.20;0.40;;;;;;;-128.00;-1.00;-1.00;100220;1286;1046179;-31
2023/12/21 11:00:17;;;;;;;1.50;0.50;;;;;;;-128.00;-1.00;-1.00;100222;1285;1002990;-33
2023/12/21 11:02:44;;;;;;;1.20;0.50;;;;;;;-128.00;-1.00;-1.00;100190;1284;1056591;-32
2023/12/21 11:05:11;;;;;;;1.80;0.70;;;;;;;-128.00;-1.00;-1.00;100161;1286;1003636;-32
2023/12/21 11:07:36;;;;;;;;;;;;;;;-128.00;-1.00;-1.00;100120;1285;1003000;-32
2023/12/21 11:10:02;;;;;;;2.70;0.50;;;;;;;-128.00;-1.00;-1.00;100104;1288;1003408;-33
2023/12/21 11:12:28;;;;;;;1.70;0.80;;;;;;;-128.00;-1.00;-1.00;100159;1284;1060332;-32
2023/12/21 11:14:54;;;;;;;3.40;1.30;;;;;;;-128.00;-1.00;-1.00;100223;1285;1003009;-33
2023/12/21 11:17:19;;;;;;;2.40;0.70;;;;;;;-128.00;-1.00;-1.00;100036;1286;1003280;-32
2023/12/21 11:19:48;;;;;;;2.50;0.40;;;;;;;-128.00;-1.00;-1.00;99974;1288;1038653;-34
2023/12/21 11:22:13;;;;;;;1.00;0.50;;;;;;;-128.00;-1.00;-1.00;100116;1283;1002825;-33
2023/12/21 11:24:39;;;;;;;1.50;0.50;;;;;;;-128.00;-1.00;-1.00;100064;1285;1003145;-35
2023/12/21 11:27:06;;;;;;;1.80;0.50;;;;;;;-128.00;-1.00;-1.00;100136;1288;1002744;-33
2023/12/21 11:29:31;;;;;;;0.70;0.30;;;;;;;-128.00;-1.00;-1.00;100102;1285;1002867;-33
2023/12/21 11:31:58;;;;;;;;;;;;;;;-128.00;-1.00;-1.00;100201;1285;1004018;-34
2023/12/21 11:34:36;;;;;;;3.30;0.40;;;;;;;-128.00;-1.00;-1.00;100209;1284;1003381;-35
2023/12/21 11:37:21;;;;;;;1.60;0.40;;;;;;;-128.00;-1.00;-1.00;100200;1285;1059581;-33
2023/12/21 11:39:48;;;;;;;2.60;0.30;;;;;;;-128.00;-1.00;-1.00;100182;1285;1059078;-35
2023/12/21 11:42:13;;;;;;;1.20;0.30;;;;;;;-128.00;-1.00;-1.00;100223;1285;1002975;-34
2023/12/21 11:44:39;;;;;;;0.60;0.30;;;;;;;-128.00;-1.00;-1.00;100185;1288;1003265;-33
2023/12/21 11:47:05;;;;;;;1.20;0.30;;;;;;;-128.00;-1.00;-1.00;100180;1286;1004025;-34
2023/12/21 11:49:31;;;;;;;0.60;0.30;;;;;;;-128.00;-1.00;-1.00;100189;1286;1002856;-34
2023/12/21 11:51:56;;;;;;;1.10;0.30;;;;;;;-128.00;-1.00;-1.00;100145;1283;1004139;-34
2023/12/21 11:54:23;;;;;;;1.40;0.40;;;;;;;-128.00;-1.00;-1.00;100094;1283;1003023;-33